Flight Track Log - Related Links

Times and Time Zones

All times are in EDT time to prevent confusion due to time zone crossing. See the UAL119 flight status page for this flight to view local times or setup timezone preferences in your user account.

Time Position Orientation Groundspeed Altitude Reporting Facility
EDT Latitude Longitude Course Direction KTS MPH feet Rate Location/Type
Sat 05:06:42 PM 40.6600 -74.1910 360° North 179 206 1,500  Level FlightAware ADS-B
Sat 05:06:59 PM 40.6439 -74.1905 179° South 197 227 2,000 1,565 Climbing FlightAware ADS-B
Sat 05:07:05 PM 40.6391 -74.1900 175° South 201 231 2,100 1,364 Climbing FlightAware ADS-B
Sat 05:07:21 PM 40.6233 -74.1932 189° South 213 245 2,500 1,429 Climbing FlightAware ADS-B
Sat 05:07:26 PM 40.6189 -74.1958 204° Southwest 216 249 2,600 1,500 Climbing FlightAware ADS-B
Sat 05:07:29 PM 40.6163 -74.1977 209° Southwest 218 251 2,700 2,000 Climbing FlightAware ADS-B
Sat 05:07:32 PM 40.6135 -74.2001 213° Southwest 220 253 2,800 2,571 Climbing FlightAware ADS-B
Sat 05:07:36 PM 40.6106 -74.2035 222° Southwest 221 254 3,000 2,182 Climbing FlightAware ADS-B
Sat 05:07:43 PM 40.6063 -74.2109 233° Southwest 222 255 3,200 2,500 Climbing FlightAware ADS-B
Sat 05:07:48 PM 40.6041 -74.2173 246° West 222 255 3,500 2,914 Climbing FlightAware ADS-B
Sat 05:08:18 PM 40.6100 -74.2545 282° West 222 255 4,900 2,824 Climbing FlightAware ADS-B
Sat 05:08:22 PM 40.6129 -74.2582 316° Northwest 227 261 5,100 2,571 Climbing FlightAware ADS-B
Sat 05:08:25 PM 40.6156 -74.2609 323° Northwest 230 265 5,200 2,000 Climbing FlightAware ADS-B
Sat 05:08:31 PM 40.6216 -74.2650 333° Northwest 237 273 5,400 1,636 Climbing FlightAware ADS-B
Sat 05:08:36 PM 40.6267 -74.2671 343° North 247 284 5,500 1,000 Climbing FlightAware ADS-B
Sat 05:08:37 PM 40.6273 -74.2672 353° North 248 285 5,500  Level FlightAware ADS-B
Sat 05:08:40 PM 40.6314 -74.2681 351° North 258 297 5,500  Level FlightAware ADS-B
Sat 05:08:42 PM 40.6331 -74.2682 357° North 258 297 5,500 1,200 Level FlightAware ADS-B
Sat 05:08:45 PM 40.6367 -74.2683 359° North 264 304 5,600 1,714 Climbing FlightAware ADS-B
Sat 05:08:49 PM 40.6422 -74.2676 North 272 313 5,700 1,714 Climbing FlightAware ADS-B
Sat 05:08:52 PM 40.6455 -74.2667 12° North 275 316 5,800 2,250 Climbing FlightAware ADS-B
Sat 05:08:57 PM 40.6522 -74.2634 20° North 279 321 6,000 2,727 Climbing FlightAware ADS-B
Sat 05:09:03 PM 40.6589 -74.2587 28° Northeast 281 323 6,300 2,824 Climbing FlightAware ADS-B
Sat 05:09:14 PM 40.6693 -74.2456 44° Northeast 286 329 6,800 2,526 Climbing FlightAware ADS-B
Sat 05:09:22 PM 40.6759 -74.2344 52° Northeast 290 334 7,100 2,400 Climbing FlightAware ADS-B
Sat 05:09:39 PM 40.6882 -74.2088 58° Northeast 297 342 7,800 2,455 Climbing FlightAware ADS-B
Sat 05:09:44 PM 40.6917 -74.2010 59° Northeast 302 348 8,000 1,875 Climbing FlightAware ADS-B
Sat 05:09:55 PM 40.6989 -74.1831 62° Northeast 314 361 8,300 1,778 Climbing FlightAware ADS-B
Sat 05:10:11 PM 40.7097 -74.1546 63° Northeast 326 375 8,800 1,909 Climbing FlightAware ADS-B
Sat 05:10:17 PM 40.7133 -74.1452 63° Northeast 288 331 9,000 2,625 Climbing FlightAware ADS-B
Sat 05:10:27 PM 40.7208 -74.1266 62° Northeast 327 376 9,500 2,333 Climbing FlightAware ADS-B
Sat 05:10:35 PM 40.7267 -74.1122 62° Northeast 325 374 9,700 1,364 Climbing FlightAware ADS-B
Sat 05:10:49 PM 40.7368 -74.0878 61° Northeast 343 395 10,000 1,000 Climbing FlightAware ADS-B
Sat 05:10:53 PM 40.7402 -74.0792 62° Northeast 343 395 10,000 182 Level FlightAware ADS-B
Sat 05:11:22 PM 40.7632 -74.0245 61° Northeast 375 432 10,100 194 Climbing FlightAware ADS-B
Sat 05:11:24 PM 40.7655 -74.0192 60° Northeast 376 433 10,100  Level FlightAware ADS-B
Sat 05:11:52 PM 40.7893 -73.9623 61° Northeast 378 435 10,100  Level FlightAware ADS-B
Sat 05:12:17 PM 40.8099 -73.9135 61° Northeast 377 434 10,100  Level FlightAware ADS-B
Sat 05:12:32 PM 40.8223 -73.8839 61° Northeast 373 429 10,100  Level FlightAware ADS-B
Sat 05:13:02 PM 40.8450 -73.8300 61° Northeast 372 428 10,100  Level FlightAware ADS-B
Sat 05:13:09 PM 40.8552 -73.8113 54° Northeast 372 428 10,100  Level FlightAware ADS-B
Sat 05:13:25 PM 40.8734 -73.7825 50° Northeast 369 425 10,100 769 Level FlightAware ADS-B
Sat 05:14:27 PM 40.9514 -73.6855 43° Northeast 366 421 11,100 1,294 Climbing FlightAware ADS-B
Sat 05:15:07 PM 40.9970 -73.6280 44° Northeast 406 467 12,300 1,800 Climbing FlightAware ADS-B
Sat 05:15:47 PM 41.0530 -73.5520 46° Northeast 430 495 13,500 2,025 Climbing FlightAware ADS-B
Sat 05:16:27 PM 41.1060 -73.4670 50° Northeast 442 509 15,000 2,133 Climbing FlightAware ADS-B
Sat 05:17:17 PM 41.1730 -73.3560 51° Northeast 460 529 16,700 2,000 Climbing FlightAware ADS-B
Sat 05:17:57 PM 41.2250 -73.2680 52° Northeast 469 540 18,000 1,725 Climbing FlightAware ADS-B
Sat 05:18:37 PM 41.2800 -73.1750 52° Northeast 485 558 19,000 706 Climbing FlightAware ADS-B
Sat 05:19:22 PM 41.3450 -73.0660 52° Northeast 482 555 19,000 706 Level FlightAware ADS-B
Sat 05:20:02 PM 41.3970 -72.9790 51° Northeast 490 564 20,000 1,575 Climbing FlightAware ADS-B
Sat 05:20:42 PM 41.4550 -72.8810 52° Northeast 502 578 21,100 975 Climbing FlightAware ADS-B
Sat 05:21:22 PM 41.5090 -72.7910 51° Northeast 504 580 21,300 1,200 Climbing FlightAware ADS-B
Sat 05:22:17 PM 41.5910 -72.6490 52° Northeast 515 593 23,000 1,509 Climbing FlightAware ADS-B
Sat 05:23:07 PM 41.5280 -72.7580 232° Southwest 24,300 1,350 Climbing FlightAware ADS-B
Sat 05:23:32 PM 41.6900 -72.4600 54° Northeast 24,800 1,200 Climbing FlightAware ADS-B
Sat 05:24:17 PM 41.7400 -72.3200 64° Northeast 550 633 25,700 1,412 Climbing FlightAware ADS-B
Sat 05:24:57 PM 41.7790 -72.1870 68° East 555 639 26,800 1,520 Climbing FlightAware ADS-B
Sat 05:25:32 PM 41.8130 -72.0770 67° East 560 644 27,600 1,200 Climbing FlightAware ADS-B
Sat 05:26:22 PM 41.8670 -71.9030 67° East 569 655 28,500 1,200 Climbing FlightAware ADS-B
Sat 05:27:02 PM 41.9050 -71.7830 67° East 569 655 29,400 1,271 Climbing FlightAware ADS-B
Sat 05:27:47 PM 41.9450 -71.6460 69° East 570 656 30,300 1,129 Climbing FlightAware ADS-B
Sat 05:28:27 PM 41.9880 -71.4950 69° East 573 659 31,000 525 Climbing FlightAware ADS-B
Sat 05:29:07 PM 42.0250 -71.3660 69° East 575 662 31,000 75 Level FlightAware ADS-B
Sat 05:29:47 PM 42.0640 -71.2290 69° East 570 656 31,100 635 Climbing FlightAware ADS-B
Sat 05:30:32 PM 42.1050 -71.0840 69° East 565 650 31,900 1,200 Climbing FlightAware ADS-B
Sat 05:31:12 PM 42.1360 -70.9750 69° East 562 647 32,800 880 Climbing FlightAware ADS-B
Sat 05:31:47 PM 42.1750 -70.8350 69° East 566 651 33,000 141 Climbing FlightAware ADS-B
Sat 05:32:37 PM 42.2240 -70.6600 69° East 566 651 33,000  Level FlightAware ADS-B
Sat 05:33:22 PM 42.2660 -70.5100 69° East 570 656 33,000  Level FlightAware ADS-B
Sat 05:34:02 PM 42.3020 -70.3790 70° East 572 658 33,000  Level FlightAware ADS-B
Sat 05:34:42 PM 42.3390 -70.2430 70° East 577 664 33,000  Level FlightAware ADS-B
Sat 05:35:27 PM 42.3800 -70.0880 70° East 576 663 33,000  Level FlightAware ADS-B
Sat 05:36:12 PM 42.4210 -69.9390 70° East 575 662 33,000  Level FlightAware ADS-B
Sat 05:36:52 PM 42.4570 -69.8020 70° East 573 659 33,000  Level FlightAware ADS-B
Sat 05:37:32 PM 42.4890 -69.6810 70° East 572 658 33,000  Level FlightAware ADS-B
Sat 05:38:12 PM 42.5230 -69.5520 70° East 570 656 33,000  Level FlightAware ADS-B
Sat 05:38:57 PM 42.5650 -69.3940 70° East 565 650 33,000  Level FlightAware ADS-B
Sat 05:39:42 PM 42.6060 -69.2360 71° East 564 649 33,000  Level FlightAware ADS-B
Sat 05:40:17 PM 42.6350 -69.1220 71° East 561 646 33,000  Level FlightAware ADS-B
Sat 05:41:02 PM 42.6760 -68.9650 70° East 559 643 33,000  Level FlightAware ADS-B
Sat 05:41:37 PM 42.7020 -68.8620 71° East 559 643 33,000  Level FlightAware ADS-B
Sat 05:42:22 PM 42.7420 -68.7050 71° East 561 646 33,000  Level FlightAware ADS-B
Sat 05:43:12 PM 42.7850 -68.5350 71° East 558 642 33,000  Level FlightAware ADS-B
Sat 05:43:52 PM 42.8120 -68.4260 71° East 558 642 33,000  Level FlightAware ADS-B
Sat 05:44:32 PM 42.8450 -68.2920 71° East 558 642 33,000  Level FlightAware ADS-B
Sat 05:45:07 PM 42.8760 -68.1650 72° East 556 640 33,000  Level FlightAware ADS-B
Sat 05:45:57 PM 42.9210 -67.9820 71° East 557 641 33,000  Level FlightAware ADS-B
Sat 05:46:42 PM 42.9520 -67.8570 71° East 558 642 33,000  Level FlightAware ADS-B
Sat 05:47:37 PM 42.9970 -67.6740 71° East 558 642 33,000  Level FlightAware ADS-B
Sat 05:48:17 PM 43.0330 -67.5200 72° East 555 639 33,000  Level FlightAware ADS-B
Sat 05:48:52 PM 43.0590 -67.4080 72° East 554 638 33,000  Level FlightAware ADS-B
Sat 05:49:37 PM 43.0950 -67.2600 72° East 554 638 33,000  Level FlightAware ADS-B
Sat 05:50:22 PM 43.1330 -67.0970 72° East 553 636 33,000  Level FlightAware ADS-B
Sat 05:51:32 PM 43.1870 -66.8930 70° East 552 635 33,000  Level FlightAware ADS-B
Sat 05:52:07 PM 43.2320 -66.7560 66° East 551 634 33,000  Level FlightAware ADS-B
Sat 05:52:57 PM 43.2800 -66.6040 67° East 553 636 33,000  Level FlightAware ADS-B
Sat 05:53:52 PM 43.3360 -66.4260 67° East 554 638 33,000  Level FlightAware ADS-B
Sat 05:54:32 PM 43.3790 -66.2890 67° East 555 639 33,000  Level FlightAware ADS-B
Sat 05:55:17 PM 43.4250 -66.1420 67° East 555 639 33,000  Level FlightAware ADS-B
Sat 05:56:12 PM 43.4810 -65.9620 67° East 556 640 33,000  Level FlightAware ADS-B
Sat 05:56:52 PM 43.5210 -65.8310 67° East 555 639 33,000  Level FlightAware ADS-B
Sat 05:57:37 PM 43.5660 -65.6840 67° East 555 639 33,000  Level FlightAware ADS-B
Sat 05:58:47 PM 43.6360 -65.4530 67° East 557 641 33,000  Level FlightAware ADS-B
Sat 05:59:22 PM 43.6710 -65.3370 67° East 557 641 33,000  Level FlightAware ADS-B
Sat 06:00:12 PM 43.7190 -65.1790 67° East 556 640 33,000  Level FlightAware ADS-B
Sat 06:01:07 PM 43.7730 -64.9960 68° East 553 636 33,000  Level FlightAware ADS-B
Sat 06:01:47 PM 43.8120 -64.8680 67° East 553 636 33,000  Level FlightAware ADS-B
Sat 06:02:32 PM 43.8560 -64.7170 68° East 552 635 33,000  Level FlightAware ADS-B
Sat 06:03:27 PM 43.9050 -64.5500 68° East 551 634 33,000  Level FlightAware ADS-B
Sat 06:04:07 PM 43.9420 -64.4260 67° East 551 634 33,000  Level FlightAware ADS-B
Sat 06:04:47 PM 43.9760 -64.3150 67° East 551 634 33,000  Level FlightAware ADS-B
Sat 06:05:27 PM 44.0100 -64.2040 67° East 551 634 33,000  Level FlightAware ADS-B
Sat 06:06:17 PM 44.0520 -64.0660 67° East 551 634 33,000  Level FlightAware ADS-B
Sat 06:06:57 PM 44.0860 -63.9550 67° East 551 634 33,000  Level FlightAware ADS-B
Sat 06:07:37 PM 44.1200 -63.8440 67° East 551 634 33,000  Level FlightAware ADS-B
Sat 06:08:17 PM 44.1810 -63.5910 71° East 555 639 33,000  Level FlightAware ADS-B
Sat 06:09:02 PM 44.2190 -63.4550 69° East 555 639 33,000  Level FlightAware ADS-B
Sat 06:09:57 PM 44.2750 -63.2560 68° East 555 639 33,000  Level FlightAware ADS-B
Sat 06:10:57 PM 44.3310 -63.0560 69° East 560 644 33,000  Level FlightAware ADS-B
Sat 06:11:37 PM 44.3630 -62.9410 69° East 560 644 33,000  Level FlightAware ADS-B
Sat 06:12:17 PM 44.3940 -62.8260 69° East 560 644 33,000  Level FlightAware ADS-B
Sat 06:12:57 PM 44.4260 -62.7110 69° East 560 644 33,000  Level FlightAware ADS-B
Sat 06:13:37 PM 44.4570 -62.5960 69° East 560 644 33,000  Level FlightAware ADS-B
Sat 06:14:27 PM 44.4970 -62.4510 69° East 560 644 33,000  Level FlightAware ADS-B
Sat 06:15:07 PM 44.5280 -62.3360 69° East 560 644 33,000  Level FlightAware ADS-B
Sat 06:15:47 PM 44.5600 -62.2210 69° East 560 644 33,000  Level FlightAware ADS-B
Sat 06:16:27 PM 44.5910 -62.1050 69° East 560 644 33,000  Level FlightAware ADS-B
Sat 06:17:07 PM 44.6230 -61.9900 69° East 560 644 33,000  Level FlightAware ADS-B
Sat 06:17:57 PM 44.6620 -61.8450 69° East 560 644 33,000  Level FlightAware ADS-B
Sat 06:18:37 PM 44.6940 -61.7300 69° East 560 644 33,000  Level FlightAware ADS-B
Sat 06:19:17 PM 44.7250 -61.6140 69° East 560 644 33,000  Level FlightAware ADS-B
Sat 06:19:57 PM 44.7570 -61.4980 69° East 560 644 33,000 1,373 Level FlightAware ADS-B
Sat 06:20:40 PM 44.8667 -61.0167 69° East 570 656 34,900 1,200 Climbing Gander Center
Sat 06:21:37 PM 44.9167 -60.8333 69° East 550 633 35,000 51 Climbing Moncton Center
Sat 06:22:37 PM 44.9667 -60.6333 70° East 540 621 35,000  Level Moncton Center
Sat 06:23:40 PM 45.0000 -60.4333 77° East 550 633 35,000 -195 Level Gander Center
Sat 06:24:40 PM 45.0667 -60.2167 66° East 550 633 34,600 -800 Descending Gander Center
Sat 06:25:40 PM 45.1167 -60.0000 72° East 550 633 33,400 -800 Descending Gander Center
Sat 06:26:40 PM 45.1667 -59.8000 70° East 550 633 33,000 -200 Descending Gander Center
Sat 06:27:40 PM 45.2167 -59.6000 70° East 550 633 33,000  Level Gander Center
Sat 06:28:40 PM 45.2667 -59.3833 72° East 550 633 33,000  Level Gander Center
Sat 06:29:40 PM 45.3000 -59.2000 75° East 550 633 33,000  Level Gander Center
Sat 06:30:40 PM 45.3667 -58.9833 66° East 550 633 33,000  Level Gander Center
Sat 06:31:40 PM 45.4167 -58.7833 70° East 550 633 33,000  Level Gander Center
Sat 06:32:40 PM 45.4667 -58.5667 72° East 550 633 33,000  Level Gander Center
Sat 06:33:40 PM 45.5000 -58.3500 78° East 550 633 33,000  Level Gander Center
Sat 06:34:40 PM 45.5500 -58.1667 69° East 550 633 33,000  Level Gander Center
Sat 06:35:37 PM 45.5833 -57.9667 77° East 550 633 33,000  Level Moncton Center
Sat 06:41:47 PM 45.8800 -56.7460 77° East 545 627 33,000  Level FlightAware ADS-B
Sat 06:42:22 PM 45.9020 -56.6400 73° East 545 627 33,000 1,200 Level FlightAware ADS-B
Sat 06:43:07 PM 45.9350 -56.4680 75° East 535 616 34,600 1,333 Climbing FlightAware ADS-B
Sat 06:43:52 PM 45.9650 -56.3160 74° East 529 609 35,000 282 Climbing FlightAware ADS-B
Sat 06:44:32 PM 45.9910 -56.1870 74° East 528 608 35,000  Level FlightAware ADS-B
Sat 06:45:17 PM 46.0220 -56.0280 74° East 526 605 35,000  Level FlightAware ADS-B
Sat 06:45:57 PM 46.0470 -55.9000 74° East 526 605 35,000  Level FlightAware ADS-B
Sat 06:46:37 PM 46.0740 -55.7580 75° East 525 604 35,000  Level FlightAware ADS-B
Sat 06:47:22 PM 46.1020 -55.6170 74° East 525 604 35,000  Level FlightAware ADS-B
Sat 06:48:02 PM 46.1290 -55.4730 75° East 526 605 35,000  Level FlightAware ADS-B
Sat 06:48:57 PM 46.1630 -55.2960 74° East 527 606 35,000  Level FlightAware ADS-B
Sat 06:49:37 PM 46.1850 -55.1810 75° East 527 606 35,000  Level FlightAware ADS-B
Sat 06:50:17 PM 46.2080 -55.0660 74° East 527 606 35,000  Level FlightAware ADS-B
Sat 06:51:07 PM 46.2440 -54.8510 76° East 530 610 35,000  Level FlightAware ADS-B
Sat 06:51:42 PM 46.2640 -54.7390 75° East 529 609 35,000  Level FlightAware ADS-B
Sat 06:52:27 PM 46.2930 -54.5780 75° East 530 610 35,000  Level FlightAware ADS-B
Sat 06:53:12 PM 46.3220 -54.4150 75° East 529 609 35,000  Level FlightAware ADS-B
Sat 06:53:47 PM 46.3420 -54.2980 76° East 529 609 35,000  Level FlightAware ADS-B
Sat 06:54:37 PM 46.3730 -54.1240 75° East 529 609 35,000  Level FlightAware ADS-B
Sat 06:55:17 PM 46.3960 -53.9870 76° East 529 609 35,000  Level FlightAware ADS-B
Sat 06:55:57 PM 46.4200 -53.8520 75° East 528 608 35,000  Level FlightAware ADS-B
Sat 06:56:42 PM 46.4460 -53.6990 76° East 528 608 35,000  Level FlightAware ADS-B
Sat 06:57:22 PM 46.4690 -53.5620 76° East 528 608 35,000  Level FlightAware ADS-B
Sat 06:58:02 PM 46.4910 -53.4250 77° East 530 610 35,000  Level FlightAware ADS-B
Sat 06:58:47 PM 46.5180 -53.2650 76° East 530 610 35,000  Level FlightAware ADS-B
Sat 06:59:27 PM 46.5400 -53.1290 77° East 530 610 35,000  Level FlightAware ADS-B
Sat 07:00:02 PM 46.5590 -53.0110 77° East 530 610 35,000  Level FlightAware ADS-B
Sat 07:01:07 PM 46.5950 -52.7840 77° East 529 609 35,000  Level FlightAware ADS-B
Sat 07:01:47 PM 46.6180 -52.6440 77° East 529 609 35,000  Level FlightAware ADS-B
Sat 07:02:32 PM 46.6410 -52.4920 78° East 528 608 35,000  Level FlightAware ADS-B
Sat 07:03:12 PM 46.6630 -52.3520 77° East 528 608 35,000  Level FlightAware ADS-B
Sat 07:03:52 PM 46.6840 -52.2140 77° East 529 609 35,000  Level FlightAware ADS-B
Sat 07:04:37 PM 46.7090 -52.0550 77° East 530 610 35,000  Level FlightAware ADS-B
Sat 07:05:17 PM 46.7290 -51.9150 78° East 530 610 35,000  Level FlightAware ADS-B
Sat 07:05:57 PM 46.7510 -51.7740 77° East 530 610 35,000  Level FlightAware ADS-B
Sat 07:06:42 PM 46.7730 -51.6200 78° East 530 610 35,000  Level FlightAware ADS-B
Sat 07:07:27 PM 46.7950 -51.4790 77° East 531 611 35,000  Level FlightAware ADS-B
Sat 07:07:57 PM 46.8090 -51.3890 77° East 531 611 35,000  Level FlightAware ADS-B
Sat 07:08:47 PM 46.8330 -51.2410 77° East 531 611 35,000  Level FlightAware ADS-B
Sat 07:09:27 PM 46.8510 -51.1220 77° East 531 611 35,000  Level FlightAware ADS-B
Sat 07:10:07 PM 46.8700 -51.0030 77° East 531 611 35,000  Level FlightAware ADS-B
Sat 07:10:57 PM 46.8940 -50.8540 77° East 531 611 35,000  Level FlightAware ADS-B
Sat 07:11:37 PM 46.9120 -50.7350 77° East 531 611 35,000  Level FlightAware ADS-B
Sat 07:12:17 PM 46.9310 -50.6160 77° East 531 611 35,000  Level FlightAware ADS-B
Sat 07:12:57 PM 46.9500 -50.4960 77° East 531 611 35,000  Level FlightAware ADS-B
Sat 07:13:37 PM 46.9690 -50.3770 77° East 531 611 35,000  Level FlightAware ADS-B
Sat 07:14:17 PM 46.9880 -50.2580 77° East 531 611 35,000  Level FlightAware ADS-B
Sat 07:15:07 PM 47.0110 -50.1090 77° East 531 611 35,000  Level FlightAware ADS-B
Sat 07:15:47 PM 47.0300 -49.9890 77° East 531 611 35,000  Level FlightAware ADS-B
Sat 07:16:27 PM 47.0490 -49.8700 77° East 531 611 35,000  Level FlightAware ADS-B
Sat 07:17:40 PM 47.1167 -49.2167 77° East 540 621 35,000  Level Gander Center
Sat 07:18:40 PM 47.1667 -49.0333 68° East 540 621 35,000  Level Gander Center
Sat 07:19:40 PM 47.2333 -48.8000 67° East 540 621 35,000  Level Gander Center
Sat 07:20:40 PM 47.2833 -48.6167 68° East 550 633 35,000  Level Gander Center
Sat 07:21:40 PM 47.3167 -48.4000 77° East 550 633 35,000  Level Gander Center
Sat 07:22:40 PM 47.3667 -48.1667 72° East 540 621 35,000  Level Gander Center
Sat 07:23:40 PM 47.4167 -47.9833 68° East 550 633 35,000  Level Gander Center
Sat 07:24:40 PM 47.4667 -47.7500 72° East 560 644 35,000  Level Gander Center
Sat 07:25:40 PM 47.5167 -47.5500 70° East 550 633 35,000  Level Gander Center
Sat 07:26:40 PM 47.5667 -47.3500 70° East 550 633 35,000  Level Gander Center
Sat 07:27:40 PM 47.6167 -47.1000 73° East 550 633 35,000  Level Gander Center
Sat 07:28:40 PM 47.6500 -46.9167 75° East 550 633 35,000  Level Gander Center
Sat 07:29:40 PM 47.7167 -46.6833 67° East 550 633 35,000  Level Gander Center
Sat 07:30:40 PM 47.7667 -46.4833 70° East 560 644 35,000 Level Gander Center
Sat 07:32:00 PM 47.8281 -46.2196 71° East  Level FlightAware Approximate
Sat 07:39:00 PM 48.1404 -44.8247 71° East  Level FlightAware Approximate
Sat 07:40:00 PM 48.1837 -44.6241 72° East  Level FlightAware Approximate
Sat 07:41:00 PM 48.2266 -44.4231 72° East  Level FlightAware Approximate
Sat 07:42:00 PM 48.2691 -44.2218 72° East  Level FlightAware Approximate
Sat 07:43:00 PM 48.3113 -44.0202 72° East  Level FlightAware Approximate
Sat 07:44:00 PM 48.3530 -43.8174 74° East  Level FlightAware Approximate
Sat 07:45:00 PM 48.3912 -43.6136 74° East  Level FlightAware Approximate
Sat 07:46:00 PM 48.4290 -43.4096 74° East  Level FlightAware Approximate
Sat 07:47:00 PM 48.4664 -43.2052 74° East  Level FlightAware Approximate
Sat 07:48:00 PM 48.5035 -43.0005 75° East  Level FlightAware Approximate
Sat 07:49:00 PM 48.5402 -42.7956 75° East  Level FlightAware Approximate
Sat 07:50:00 PM 48.5766 -42.5903 75° East  Level FlightAware Approximate
Sat 07:51:00 PM 48.6126 -42.3847 75° East  Level FlightAware Approximate
Sat 07:52:00 PM 48.6482 -42.1789 75° East  Level FlightAware Approximate
Sat 07:53:00 PM 48.6835 -41.9727 75° East  Level FlightAware Approximate
Sat 07:54:00 PM 48.7184 -41.7663 76° East  Level FlightAware Approximate
Sat 07:55:00 PM 48.7529 -41.5596 76° East  Level FlightAware Approximate
Sat 07:56:00 PM 48.7870 -41.3526 76° East  Level FlightAware Approximate
Sat 07:57:00 PM 48.8208 -41.1453 76° East  Level FlightAware Approximate
Sat 07:58:00 PM 48.8542 -40.9378 76° East  Level FlightAware Approximate
Sat 07:59:00 PM 48.8873 -40.7299 76° East  Level FlightAware Approximate
Sat 08:00:00 PM 48.9199 -40.5218 76° East  Level FlightAware Approximate
Sat 08:01:00 PM 48.9522 -40.3134 77° East  Level FlightAware Approximate
Sat 08:02:00 PM 48.9841 -40.1048 77° East  Level FlightAware Approximate
Sat 08:03:00 PM 49.0152 -39.8957 77° East  Level FlightAware Approximate
Sat 08:04:00 PM 49.0453 -39.6862 78° East  Level FlightAware Approximate
Sat 08:05:00 PM 49.0751 -39.4764 78° East  Level FlightAware Approximate
Sat 08:06:00 PM 49.1045 -39.2664 78° East  Level FlightAware Approximate
Sat 08:07:00 PM 49.1335 -39.0561 78° East  Level FlightAware Approximate
Sat 08:08:00 PM 49.1621 -38.8456 78° East  Level FlightAware Approximate
Sat 08:09:00 PM 49.1904 -38.6349 78° East  Level FlightAware Approximate
Sat 08:10:00 PM 49.2182 -38.4239 78° East  Level FlightAware Approximate
Sat 08:11:00 PM 49.2457 -38.2127 79° East  Level FlightAware Approximate
Sat 08:12:00 PM 49.2728 -38.0012 79° East  Level FlightAware Approximate
Sat 08:13:00 PM 49.2995 -37.7895 79° East  Level FlightAware Approximate
Sat 08:14:00 PM 49.3258 -37.5776 79° East  Level FlightAware Approximate
Sat 08:15:00 PM 49.3517 -37.3655 79° East  Level FlightAware Approximate
Sat 08:16:00 PM 49.3773 -37.1531 79° East  Level FlightAware Approximate
Sat 08:17:00 PM 49.4024 -36.9405 80° East  Level FlightAware Approximate
Sat 08:18:00 PM 49.4272 -36.7277 80° East  Level FlightAware Approximate
Sat 08:19:00 PM 49.4516 -36.5147 80° East  Level FlightAware Approximate
Sat 08:20:00 PM 49.4756 -36.3015 80° East  Level FlightAware Approximate
Sat 08:21:00 PM 49.4991 -36.0881 80° East  Level FlightAware Approximate
Sat 08:22:00 PM 49.5223 -35.8744 80° East  Level FlightAware Approximate
Sat 08:23:00 PM 49.5451 -35.6606 81° East  Level FlightAware Approximate
Sat 08:24:00 PM 49.5675 -35.4466 81° East  Level FlightAware Approximate
Sat 08:25:00 PM 49.5896 -35.2323 81° East  Level FlightAware Approximate
Sat 08:26:00 PM 49.6112 -35.0179 81° East  Level FlightAware Approximate
Sat 08:27:00 PM 49.6324 -34.8033 81° East  Level FlightAware Approximate
Sat 08:28:00 PM 49.6532 -34.5885 81° East  Level FlightAware Approximate
Sat 08:29:00 PM 49.6736 -34.3735 82° East  Level FlightAware Approximate
Sat 08:30:00 PM 49.6937 -34.1584 82° East  Level FlightAware Approximate
Sat 08:31:00 PM 49.7133 -33.9431 82° East  Level FlightAware Approximate
Sat 08:32:00 PM 49.7325 -33.7276 82° East  Level FlightAware Approximate
Sat 08:33:00 PM 49.7514 -33.5119 82° East  Level FlightAware Approximate
Sat 08:34:00 PM 49.7698 -33.2960 82° East  Level FlightAware Approximate
Sat 08:35:00 PM 49.7878 -33.0800 83° East  Level FlightAware Approximate
Sat 08:36:00 PM 49.8054 -32.8639 83° East  Level FlightAware Approximate
Sat 08:37:00 PM 49.8226 -32.6476 83° East  Level FlightAware Approximate
Sat 08:38:00 PM 49.8395 -32.4311 83° East  Level FlightAware Approximate
Sat 08:39:00 PM 49.8559 -32.2145 83° East  Level FlightAware Approximate
Sat 08:40:00 PM 49.8719 -31.9977 83° East  Level FlightAware Approximate
Sat 08:41:00 PM 49.8875 -31.7808 84° East  Level FlightAware Approximate
Sat 08:42:00 PM 49.9027 -31.5638 84° East  Level FlightAware Approximate
Sat 08:43:00 PM 49.9175 -31.3466 84° East  Level FlightAware Approximate
Sat 08:44:00 PM 49.9319 -31.1293 84° East  Level FlightAware Approximate
Sat 08:45:00 PM 49.9459 -30.9118 84° East  Level FlightAware Approximate
Sat 08:46:00 PM 49.9594 -30.6943 84° East  Level FlightAware Approximate
Sat 08:47:00 PM 49.9726 -30.4766 85° East  Level FlightAware Approximate
Sat 08:48:00 PM 49.9854 -30.2588 85° East  Level FlightAware Approximate
Sat 08:49:00 PM 49.9977 -30.0409 85° East  Level FlightAware Approximate
Sat 08:50:00 PM 50.0243 -29.8263 78° East  Level FlightAware Approximate
Sat 08:51:00 PM 50.0539 -29.6122 78° East  Level FlightAware Approximate
Sat 08:52:00 PM 50.0831 -29.3979 78° East  Level FlightAware Approximate
Sat 08:53:00 PM 50.1120 -29.1833 78° East  Level FlightAware Approximate
Sat 08:54:00 PM 50.1404 -28.9685 78° East  Level FlightAware Approximate
Sat 08:55:00 PM 50.1684 -28.7534 78° East  Level FlightAware Approximate
Sat 08:56:00 PM 50.1968 -28.5382 78° East  Level FlightAware Approximate
Sat 08:57:00 PM 50.2248 -28.3229 78° East  Level FlightAware Approximate
Sat 08:58:00 PM 50.2524 -28.1073 79° East  Level FlightAware Approximate
Sat 08:59:00 PM 50.2795 -27.8914 79° East  Level FlightAware Approximate
Sat 09:00:00 PM 50.3063 -27.6753 79° East  Level FlightAware Approximate
Sat 09:01:00 PM 50.3327 -27.4589 79° East  Level FlightAware Approximate
Sat 09:02:00 PM 50.3587 -27.2423 79° East  Level FlightAware Approximate
Sat 09:03:00 PM 50.3842 -27.0255 79° East  Level FlightAware Approximate
Sat 09:04:00 PM 50.4094 -26.8084 80° East  Level FlightAware Approximate
Sat 09:05:00 PM 50.4342 -26.5912 80° East  Level FlightAware Approximate
Sat 09:06:00 PM 50.4585 -26.3736 80° East  Level FlightAware Approximate
Sat 09:07:00 PM 50.4824 -26.1559 80° East  Level FlightAware Approximate
Sat 09:08:00 PM 50.5058 -25.9379 80° East  Level FlightAware Approximate
Sat 09:09:00 PM 50.5289 -25.7197 80° East  Level FlightAware Approximate
Sat 09:10:00 PM 50.5515 -25.5013 81° East  Level FlightAware Approximate
Sat 09:11:00 PM 50.5737 -25.2827 81° East  Level FlightAware Approximate
Sat 09:12:00 PM 50.5955 -25.0639 81° East  Level FlightAware Approximate
Sat 09:13:00 PM 50.6169 -24.8448 81° East  Level FlightAware Approximate
Sat 09:14:00 PM 50.6379 -24.6256 81° East  Level FlightAware Approximate
Sat 09:15:00 PM 50.6585 -24.4062 82° East  Level FlightAware Approximate
Sat 09:16:00 PM 50.6786 -24.1866 82° East  Level FlightAware Approximate
Sat 09:17:00 PM 50.6984 -23.9668 82° East  Level FlightAware Approximate
Sat 09:18:00 PM 50.7177 -23.7468 82° East  Level FlightAware Approximate
Sat 09:19:00 PM 50.7366 -23.5267 82° East  Level FlightAware Approximate
Sat 09:20:00 PM 50.7551 -23.3063 82° East  Level FlightAware Approximate
Sat 09:21:00 PM 50.7732 -23.0858 83° East  Level FlightAware Approximate
Sat 09:22:00 PM 50.7909 -22.8652 83° East  Level FlightAware Approximate
Sat 09:23:00 PM 50.8082 -22.6443 83° East  Level FlightAware Approximate
Sat 09:24:00 PM 50.8258 -22.4235 82° East  Level FlightAware Approximate
Sat 09:25:00 PM 50.8438 -22.2026 83° East  Level FlightAware Approximate
Sat 09:26:00 PM 50.8614 -21.9816 83° East  Level FlightAware Approximate
Sat 09:27:00 PM 50.8786 -21.7604 83° East  Level FlightAware Approximate
Sat 09:28:00 PM 50.8953 -21.5391 83° East  Level FlightAware Approximate
Sat 09:29:00 PM 50.9117 -21.3176 83° East  Level FlightAware Approximate
Sat 09:30:00 PM 50.9276 -21.0959 83° East  Level FlightAware Approximate
Sat 09:31:00 PM 50.9431 -20.8741 84° East  Level FlightAware Approximate
Sat 09:32:00 PM 50.9582 -20.6521 84° East  Level FlightAware Approximate
Sat 09:33:00 PM 50.9728 -20.4300 84° East  Level FlightAware Approximate
Sat 09:34:00 PM 50.9871 -20.2078 84° East  Level FlightAware Approximate
Sat 09:35:00 PM 51.0019 -19.9857 78° East  Level FlightAware Approximate
Sat 09:36:00 PM 51.0299 -19.7666 78° East  Level FlightAware Approximate
Sat 09:37:00 PM 51.0576 -19.5473 79° East  Level FlightAware Approximate
Sat 09:38:00 PM 51.0849 -19.3277 79° East  Level FlightAware Approximate
Sat 09:39:00 PM 51.1118 -19.1079 79° East  Level FlightAware Approximate
Sat 09:40:00 PM 51.1382 -18.8878 79° East  Level FlightAware Approximate
Sat 09:41:00 PM 51.1642 -18.6675 79° East  Level FlightAware Approximate
Sat 09:42:00 PM 51.1899 -18.4469 79° East  Level FlightAware Approximate
Sat 09:43:00 PM 51.2151 -18.2261 80° East  Level FlightAware Approximate
Sat 09:44:00 PM 51.2399 -18.0051 80° East  Level FlightAware Approximate
Sat 09:45:00 PM 51.2642 -17.7838 80° East  Level FlightAware Approximate
Sat 09:46:00 PM 51.2882 -17.5622 80° East  Level FlightAware Approximate
Sat 09:47:00 PM 51.3117 -17.3405 80° East  Level FlightAware Approximate
Sat 09:48:00 PM 51.3349 -17.1185 80° East  Level FlightAware Approximate
Sat 09:49:00 PM 51.3576 -16.8963 81° East  Level FlightAware Approximate
Sat 09:50:00 PM 51.3798 -16.6738 81° East  Level FlightAware Approximate
Sat 09:51:00 PM 51.4017 -16.4512 81° East  Level FlightAware Approximate
Sat 09:52:00 PM 51.4231 -16.2283 81° East  Level FlightAware Approximate
Sat 09:53:00 PM 51.4441 -16.0053 81° East  Level FlightAware Approximate
Sat 09:54:00 PM 51.4647 -15.7820 81° East  Level FlightAware Approximate
Sat 09:55:00 PM 51.4849 -15.5586 82° East  Level FlightAware Approximate
Sat 09:56:00 PM 51.5046 -15.3349 82° East  Level FlightAware Approximate
Sat 09:57:00 PM 51.5239 -15.1110 82° East  Level FlightAware Approximate
Sat 09:58:00 PM 51.5429 -14.8870 82° East  Level FlightAware Approximate
Sat 09:59:00 PM 51.5617 -14.6628 82° East  Level FlightAware Approximate
Sat 10:00:00 PM 51.5799 -14.4385 82° East  Level FlightAware Approximate
Sat 10:01:00 PM 51.5978 -14.2139 83° East  Level FlightAware Approximate
Sat 10:02:00 PM 51.6152 -13.9892 83° East  Level FlightAware Approximate
Sat 10:03:00 PM 51.6323 -13.7644 83° East  Level FlightAware Approximate
Sat 10:04:00 PM 51.6488 -13.5393 83° East  Level FlightAware Approximate
Sat 10:05:00 PM 51.6650 -13.3141 83° East  Level FlightAware Approximate
Sat 10:06:00 PM 51.6807 -13.0888 83° East  Level FlightAware Approximate
Sat 10:07:00 PM 51.6960 -12.8632 84° East  Level FlightAware Approximate
Sat 10:08:00 PM 51.7108 -12.6376 84° East  Level FlightAware Approximate
Sat 10:09:00 PM 51.7253 -12.4118 84° East  Level FlightAware Approximate
Sat 10:10:00 PM 51.7392 -12.1858 84° East  Level FlightAware Approximate
Sat 10:11:00 PM 51.7528 -11.9597 84° East  Level FlightAware Approximate
Sat 10:12:00 PM 51.7659 -11.7335 85° East  Level FlightAware Approximate
Sat 10:13:00 PM 51.7786 -11.5071 85° East  Level FlightAware Approximate
Sat 10:14:00 PM 51.7908 -11.2807 85° East  Level FlightAware Approximate
Sat 10:15:00 PM 51.8027 -11.0541 85° East  Level FlightAware Approximate
Sat 10:15:02 PM 51.4480 -11.2290 85° East 510 587 36,000  Level FlightAware ADS-B
Sat 10:15:47 PM 51.4660 -11.0650 80° East 513 590 36,000  Level FlightAware ADS-B
Sat 10:16:32 PM 51.4850 -10.8920 80° East 514 592 36,000  Level FlightAware ADS-B
Sat 10:17:22 PM 51.5060 -10.7010 80° East 515 593 36,000  Level FlightAware ADS-B
Sat 10:18:07 PM 51.5240 -10.5310 80° East 515 593 36,000  Level FlightAware ADS-B
Sat 10:18:47 PM 51.5400 -10.3790 80° East 516 594 36,000  Level FlightAware ADS-B
Sat 10:19:27 PM 51.5550 -10.2410 80° East 516 594 36,000  Level FlightAware ADS-B
Sat 10:20:27 PM 51.5810 -9.9910 80° East 516 594 36,000  Level FlightAware ADS-B
Sat 10:21:17 PM 51.5980 -9.8220 81° East 518 596 36,000  Level FlightAware ADS-B
Sat 10:22:02 PM 51.6160 -9.6430 81° East 519 597 36,000  Level FlightAware ADS-B
Sat 10:22:42 PM 51.6300 -9.4960 81° East 519 597 36,000  Level FlightAware ADS-B
Sat 10:23:27 PM 51.6480 -9.3150 81° East 517 595 36,000  Level FlightAware ADS-B
Sat 10:24:07 PM 51.6630 -9.1630 81° East 515 593 36,000  Level FlightAware ADS-B
Sat 10:24:47 PM 51.6770 -9.0110 81° East 513 590 36,000 -2,195 Level FlightAware ADS-B
Sat 10:24:48 PM 51.6746 -8.9632 81° East 454 522 34,500 -4,737 Descending FlightAware UK
Sat 10:25:06 PM 51.6805 -8.8947 81° East 454 522 34,500  Level FlightAware UK
Sat 10:25:24 PM 51.6864 -8.8266 82° East 452 520 34,500 3,462 Level FlightAware UK
Sat 10:25:32 PM 51.6930 -8.8460 82° East 512 589 36,000  Climbing FlightAware ADS-B
Sat 10:25:48 PM 51.6943 -8.7357 82° East 454 522 34,500 -2,647 Descending FlightAware UK
Sat 10:26:06 PM 51.7003 -8.6677 82° East 454 522 34,500 3,103 Level FlightAware UK
Sat 10:26:17 PM 51.7090 -8.6760 82° East 512 589 36,000  Climbing FlightAware ADS-B
Sat 10:26:36 PM 51.7099 -8.5542 82° East 454 522 34,500 -2,432 Descending FlightAware UK
Sat 10:26:54 PM 51.7155 -8.4862 82° East 452 520 34,500  Level FlightAware UK
Sat 10:27:12 PM 51.7212 -8.4182 82° East 452 520 34,500  Level FlightAware UK
Sat 10:27:30 PM 51.7267 -8.3500 83° East 452 520 34,500 3,600 Level FlightAware UK
Sat 10:27:37 PM 51.7370 -8.3650 83° East 512 589 36,000  Climbing FlightAware ADS-B
Sat 10:27:54 PM 51.7342 -8.2594 83° East 452 520 34,500 -2,571 Descending FlightAware UK
Sat 10:28:12 PM 51.7399 -8.1906 82° East 450 518 34,500  Level FlightAware UK
Sat 10:28:30 PM 51.7457 -8.1226 82° East 452 520 34,500 2,571 Level FlightAware UK
Sat 10:28:47 PM 51.7590 -8.1120 82° East 510 587 36,000  Climbing FlightAware ADS-B
Sat 10:28:48 PM 51.7513 -8.0546 82° East 452 520 34,500 -4,737 Descending FlightAware UK
Sat 10:29:06 PM 51.7567 -7.9866 82° East 450 518 34,500  Level FlightAware UK
Sat 10:29:24 PM 51.7620 -7.9186 83° East 450 518 34,500  Level FlightAware UK
Sat 10:29:42 PM 51.7672 -7.8504 83° East 448 516 34,500 2,727 Level FlightAware UK
Sat 10:29:57 PM 51.7820 -7.8370 83° East 514 592 36,000  Climbing FlightAware ADS-B
Sat 10:30:00 PM 51.7725 -7.7823 83° East 448 516 34,500 -6,000 Descending FlightAware UK
Sat 10:30:12 PM 51.7760 -7.7367 83° East 448 516 34,500  Level FlightAware UK
Sat 10:30:30 PM 51.7812 -7.6684 83° East 448 516 34,500  Level FlightAware UK
Sat 10:30:48 PM 51.7866 -7.6000 83° East 448 516 34,500 3,333 Level FlightAware UK
Sat 10:30:57 PM 51.8000 -7.6260 83° East 515 593 36,000  Climbing FlightAware ADS-B
Sat 10:31:12 PM 51.7936 -7.5080 83° East 452 520 34,500 -2,727 Descending FlightAware UK
Sat 10:31:30 PM 51.7985 -7.4394 83° East 450 518 34,500  Level FlightAware UK
Sat 10:31:48 PM 51.8033 -7.3708 84° East 450 518 34,500  Level FlightAware UK
Sat 10:32:06 PM 51.8084 -7.3022 83° East 450 518 34,500 3,103 Level FlightAware UK
Sat 10:32:17 PM 51.8250 -7.3140 83° East 517 595 36,000  Climbing FlightAware ADS-B
Sat 10:32:36 PM 51.8169 -7.1878 83° East 450 518 34,500 -2,432 Descending FlightAware UK
Sat 10:32:54 PM 51.8218 -7.1191 83° East 450 518 34,500 3,462 Level FlightAware UK
Sat 10:33:02 PM 51.8390 -7.1380 83° East 518 596 36,000  Climbing FlightAware ADS-B
Sat 10:33:18 PM 51.8286 -7.0273 83° East 450 518 34,500 -2,647 Descending FlightAware UK
Sat 10:33:36 PM 51.8335 -6.9583 83° East 450 518 34,500 3,750 Level FlightAware UK
Sat 10:33:42 PM 51.8500 -6.9880 83° East 520 598 36,000  Climbing FlightAware ADS-B
Sat 10:34:00 PM 51.8398 -6.8660 83° East 450 518 34,500 -2,500 Descending FlightAware UK
Sat 10:34:18 PM 51.8446 -6.7958 84° East 454 522 34,500 3,333 Level FlightAware UK
Sat 10:34:27 PM 51.8640 -6.8120 84° East 522 601 36,000  Climbing FlightAware ADS-B
Sat 10:34:42 PM 51.8509 -6.7032 84° East 452 520 34,500 -2,727 Descending FlightAware UK
Sat 10:35:00 PM 51.8556 -6.6335 84° East 452 520 34,500 3,600 Level FlightAware UK
Sat 10:35:07 PM 51.8750 -6.6540 84° East 523 602 36,000  Climbing FlightAware ADS-B
Sat 10:35:24 PM 51.8620 -6.5406 84° East 452 520 34,500 -2,571 Descending FlightAware UK
Sat 10:35:42 PM 51.8669 -6.4708 84° East 452 520 34,500 3,913 Level FlightAware UK
Sat 10:35:47 PM 51.8870 -6.4990 84° East 524 603 36,000  Climbing FlightAware ADS-B
Sat 10:36:06 PM 51.8728 -6.3777 84° East 452 520 34,500 -2,432 Descending FlightAware UK
Sat 10:36:24 PM 51.8773 -6.3071 84° East 454 522 34,500 3,462 Level FlightAware UK
Sat 10:36:32 PM 51.8990 -6.3250 84° East 526 605 36,000  Climbing FlightAware ADS-B
Sat 10:36:48 PM 51.8832 -6.2137 84° East 456 525 34,500 -2,647 Descending FlightAware UK
Sat 10:37:06 PM 51.8875 -6.1436 84° East 456 525 34,500 3,750 Level FlightAware UK
Sat 10:37:12 PM 51.9100 -6.1650 84° East 527 606 36,000  Climbing FlightAware ADS-B
Sat 10:37:30 PM 51.8934 -6.0499 84° East 456 525 34,500 -2,432 Descending FlightAware UK
Sat 10:37:49 PM 51.8979 -5.9789 84° East 456 525 34,500 3,333 Level FlightAware UK
Sat 10:37:57 PM 51.9220 -5.9850 84° East 526 605 36,000  Climbing FlightAware ADS-B
Sat 10:38:12 PM 51.9036 -5.8859 84° East 456 525 34,500 -2,647 Descending FlightAware UK
Sat 10:38:31 PM 51.9078 -5.8149 84° East 456 525 34,500 3,600 Level FlightAware UK
Sat 10:38:37 PM 51.9320 -5.8270 84° East 526 605 36,000  Climbing FlightAware ADS-B
Sat 10:38:55 PM 51.9134 -5.7212 84° East 456 525 34,500 -2,571 Descending FlightAware UK
Sat 10:39:12 PM 51.9177 -5.6518 84° East 458 527 34,500 4,091 Level FlightAware UK
Sat 10:39:17 PM 51.9420 -5.6700 84° East 528 608 36,000  Climbing FlightAware ADS-B
Sat 10:39:37 PM 51.9233 -5.5572 84° East 458 527 34,500 -2,432 Descending FlightAware UK
Sat 10:39:54 PM 51.9273 -5.4876 85° East 456 525 34,500 3,600 Level FlightAware UK
Sat 10:40:02 PM 51.9530 -5.4970 85° East 527 606 36,000  Climbing FlightAware ADS-B
Sat 10:40:19 PM 51.9329 -5.3934 85° East 458 527 34,500 -2,571 Descending FlightAware UK
Sat 10:40:37 PM 51.9366 -5.3231 85° East 458 527 34,500 3,913 Level FlightAware UK
Sat 10:40:42 PM 51.9630 -5.3400 85° East 527 606 36,000  Climbing FlightAware ADS-B
Sat 10:41:01 PM 51.9419 -5.2295 85° East 456 525 34,500 -2,432 Descending FlightAware UK
Sat 10:41:19 PM 51.9458 -5.1593 85° East 456 525 34,500 3,462 Level FlightAware UK
Sat 10:41:27 PM 51.9730 -5.1600 85° East 527 606 36,000  Climbing FlightAware ADS-B
Sat 10:41:43 PM 51.9509 -5.0655 85° East 456 525 34,500 -2,647 Descending FlightAware UK
Sat 10:42:01 PM 51.9546 -4.9951 85° East 458 527 34,500 4,286 Level FlightAware UK
Sat 10:42:04 PM 51.9816 -5.0101 85° East 527 606 36,000  Climbing FlightAware ADS-B
Sat 10:42:19 PM 51.9585 -4.9245 85° East 456 525 34,500 -2,727 Descending FlightAware UK
Sat 10:42:37 PM 51.9625 -4.8540 85° East 456 525 34,500 3,214 Level FlightAware UK
Sat 10:42:47 PM 51.9910 -4.8450 85° East 527 606 36,000 3,913 Climbing FlightAware ADS-B
Sat 10:43:00 PM 51.9940 -4.7886 85° East 527 606 36,000 -2,813 Level FlightAware ADS-B
Sat 10:43:19 PM 51.9708 -4.6888 85° East 456 525 34,500  Descending FlightAware UK
Sat 10:43:30 PM 52.0002 -4.6704 85° East 526 605 36,000  Climbing FlightAware ADS-B
Sat 10:43:49 PM 51.9765 -4.5717 85° East 454 522 34,500  Descending FlightAware UK
Sat 10:44:00 PM 52.0063 -4.5526 85° East 526 605 36,000  Climbing FlightAware ADS-B
Sat 10:44:19 PM 51.9822 -4.4555 85° East 450 518 34,500  Descending FlightAware UK
Sat 10:44:31 PM 52.0127 -4.4311 85° East 527 606 36,000  Climbing FlightAware ADS-B
Sat 10:44:49 PM 51.9880 -4.3376 85° East 450 518 34,500  Descending FlightAware UK
Sat 10:45:02 PM 52.0187 -4.3085 85° East 527 606 36,000  Climbing FlightAware ADS-B
Sat 10:45:19 PM 51.9936 -4.2198 85° East 450 518 34,500  Descending FlightAware UK
Sat 10:45:35 PM 52.0251 -4.1788 85° East 528 608 36,000  Climbing FlightAware ADS-B
Sat 10:45:55 PM 52.0001 -4.0775 85° East 454 522 34,500  Descending FlightAware UK
Sat 10:46:06 PM 52.0307 -4.0574 85° East 529 609 36,000  Climbing FlightAware ADS-B
Sat 10:46:25 PM 52.0054 -3.9607 85° East 454 522 34,500  Descending FlightAware UK
Sat 10:46:36 PM 52.0362 -3.9391 85° East 528 608 36,000  Climbing FlightAware ADS-B
Sat 10:46:55 PM 52.0103 -3.8427 85° East 452 520 34,500  Descending FlightAware UK
Sat 10:47:08 PM 52.0417 -3.8145 85° East 528 608 36,000  Climbing FlightAware ADS-B
Sat 10:47:26 PM 52.0155 -3.7232 85° East 454 522 34,500  Descending FlightAware UK
Sat 10:47:39 PM 52.0470 -3.6921 85° East 528 608 36,000  Climbing FlightAware ADS-B
Sat 10:47:55 PM 52.0203 -3.6077 85° East 454 522 34,500 -2,647 Descending FlightAware UK
Sat 10:48:13 PM 52.0232 -3.5362 86° East 454 522 34,500 4,091 Level FlightAware UK
Sat 10:48:17 PM 52.0534 -3.5395 86° East 529 609 36,000  Climbing FlightAware ADS-B
Sat 10:48:37 PM 52.0271 -3.4410 86° East 454 522 34,500  Descending FlightAware UK
Sat 10:48:48 PM 52.0584 -3.4186 86° East 528 608 36,000  Climbing FlightAware ADS-B
Sat 10:49:08 PM 52.0317 -3.3224 86° East 450 518 34,500  Descending FlightAware UK
Sat 10:49:18 PM 52.0630 -3.2996 86° East 526 605 36,000  Climbing FlightAware ADS-B
Sat 10:49:38 PM 52.0364 -3.2050 86° East 448 516 34,500  Descending FlightAware UK
Sat 10:49:49 PM 52.0677 -3.1764 86° East 525 604 36,000  Climbing FlightAware ADS-B
Sat 10:50:08 PM 52.0406 -3.0873 86° East 446 513 34,500 -2,432 Descending FlightAware UK
Sat 10:50:26 PM 52.0432 -3.0172 87° East 448 516 34,500 3,750 Level FlightAware UK
Sat 10:50:32 PM 52.0730 -3.0210 87° East 522 601 36,000 6,923 Climbing FlightAware ADS-B
Sat 10:50:39 PM 52.0747 -2.9806 86° East 524 603 36,000 -3,750 Level FlightAware ADS-B
Sat 10:50:56 PM 52.0473 -2.9015 86° East 448 516 34,500  Descending FlightAware UK
Sat 10:51:10 PM 52.0788 -2.8606 86° East 525 604 36,000  Climbing FlightAware ADS-B
Sat 10:51:26 PM 52.0516 -2.7845 86° East 450 518 34,500  Descending FlightAware UK
Sat 10:51:40 PM 52.0827 -2.7409 86° East 528 608 36,000  Climbing FlightAware ADS-B
Sat 10:51:56 PM 52.0554 -2.6669 86° East 452 520 34,500  Descending FlightAware UK
Sat 10:52:11 PM 52.0867 -2.6201 86° East 528 608 36,000  Climbing FlightAware ADS-B
Sat 10:52:26 PM 52.0593 -2.5493 86° East 450 518 34,500  Descending FlightAware UK
Sat 10:52:41 PM 52.0903 -2.5016 86° East 528 608 36,000  Climbing FlightAware ADS-B
Sat 10:52:56 PM 52.0631 -2.4306 86° East 452 520 34,500  Descending FlightAware UK
Sat 10:53:11 PM 52.0939 -2.3821 86° East 529 609 36,000  Climbing FlightAware ADS-B
Sat 10:53:26 PM 52.0668 -2.3118 86° East 452 520 34,500  Descending FlightAware UK
Sat 10:53:41 PM 52.0974 -2.2625 86° East 531 611 36,000  Climbing FlightAware ADS-B
Sat 10:53:56 PM 52.0705 -2.1934 86° East 454 522 34,500  Descending FlightAware UK
Sat 10:54:11 PM 52.1006 -2.1432 86° East 531 611 36,000  Climbing FlightAware ADS-B
Sat 10:54:26 PM 52.0738 -2.0738 86° East 456 525 34,500  Descending FlightAware UK
Sat 10:54:42 PM 52.1037 -2.0232 86° East 530 610 36,000  Climbing FlightAware ADS-B
Sat 10:55:02 PM 52.0778 -1.9323 86° East 454 522 34,500  Descending FlightAware UK
Sat 10:55:12 PM 52.1066 -1.9032 86° East 530 610 36,000  Climbing FlightAware ADS-B
Sat 10:55:32 PM 52.0809 -1.8139 86° East 454 522 34,500  Descending FlightAware UK
Sat 10:55:42 PM 52.1095 -1.7834 86° East 530 610 36,000  Climbing FlightAware ADS-B
Sat 10:56:02 PM 52.0840 -1.6962 86° East 456 525 34,500  Descending FlightAware UK
Sat 10:56:12 PM 52.1121 -1.6624 86° East 531 611 36,000  Climbing FlightAware ADS-B
Sat 10:56:32 PM 52.0868 -1.5767 86° East 456 525 34,500  Descending FlightAware UK
Sat 10:56:43 PM 52.1147 -1.5422 86° East 531 611 36,000  Climbing FlightAware ADS-B
Sat 10:57:02 PM 52.0896 -1.4586 86° East 456 525 34,500  Descending FlightAware UK
Sat 10:57:13 PM 52.1171 -1.4227 86° East 531 611 36,000  Climbing FlightAware ADS-B
Sat 10:57:32 PM 52.0924 -1.3381 86° East 454 522 34,500  Descending FlightAware UK
Sat 10:57:43 PM 52.1193 -1.3027 86° East 529 609 36,000  Climbing FlightAware ADS-B
Sat 10:58:03 PM 52.0949 -1.2179 86° East 452 520 34,500  Descending FlightAware UK
Sat 10:58:13 PM 52.1216 -1.1829 86° East 529 609 36,000  Climbing FlightAware ADS-B
Sat 10:58:33 PM 52.0975 -1.0980 86° East 454 522 34,500  Descending FlightAware UK
Sat 10:58:43 PM 52.1234 -1.0629 86° East 530 610 36,000  Climbing FlightAware ADS-B
Sat 10:59:02 PM 52.0996 -0.9827 86° East 454 522 34,500  Descending FlightAware UK
Sat 10:59:13 PM 52.1251 -0.9429 86° East 531 611 36,000  Climbing FlightAware ADS-B
Sat 10:59:33 PM 52.1018 -0.8623 86° East 456 525 34,500  Descending FlightAware UK
Sat 10:59:44 PM 52.1269 -0.8219 86° East 531 611 36,000  Climbing FlightAware ADS-B
Sat 11:00:03 PM 52.1040 -0.7417 86° East 456 525 34,500  Descending FlightAware UK
Sat 11:00:14 PM 52.1284 -0.7018 86° East 530 610 36,000  Climbing FlightAware ADS-B
Sat 11:00:34 PM 52.1061 -0.6203 86° East 452 520 34,500  Descending FlightAware UK
Sat 11:00:44 PM 52.1299 -0.5824 86° East 530 610 36,000  Climbing FlightAware ADS-B
Sat 11:01:04 PM 52.1078 -0.5016 86° East 454 522 34,500  Descending FlightAware UK
Sat 11:01:14 PM 52.1312 -0.4614 86° East 531 611 36,000  Climbing FlightAware ADS-B
Sat 11:01:33 PM 52.1094 -0.3845 86° East 454 522 34,500  Descending FlightAware UK
Sat 11:01:44 PM 52.1322 -0.3419 86° East 531 611 36,000  Climbing FlightAware ADS-B
Sat 11:02:03 PM 52.1111 -0.2656 86° East 454 522 34,500  Descending FlightAware UK
Sat 11:02:15 PM 52.1332 -0.2203 86° East 531 611 36,000  Climbing FlightAware ADS-B
Sat 11:02:33 PM 52.1126 -0.1466 86° East 454 522 34,500  Descending FlightAware UK
Sat 11:02:45 PM 52.1341 -0.1008 86° East 531 611 36,000  Climbing FlightAware ADS-B
Sat 11:03:04 PM 52.1141 -0.0251 86° East 454 522 34,500  Descending FlightAware UK
Sat 11:03:15 PM 52.1348 0.0202 86° East 531 611 36,000  Climbing FlightAware ADS-B
Sat 11:03:33 PM 52.1153 0.0925 86° East 454 522 34,500  Descending FlightAware UK
Sat 11:03:46 PM 52.1354 0.1413 86° East 531 611 36,000  Climbing FlightAware ADS-B
Sat 11:04:03 PM 52.1164 0.2116 86° East 454 522 34,500  Descending FlightAware UK
Sat 11:04:16 PM 52.1360 0.2631 86° East 531 611 36,000  Climbing FlightAware ADS-B
Sat 11:04:34 PM 52.1175 0.3316 86° East 454 522 34,500  Descending FlightAware UK
Sat 11:04:47 PM 52.1361 0.3842 86° East 531 611 36,000  Climbing FlightAware ADS-B
Sat 11:05:03 PM 52.1183 0.4501 86° East 454 522 34,500  Descending FlightAware UK
Sat 11:05:17 PM 52.1363 0.5037 86° East 530 610 36,000  Climbing FlightAware ADS-B
Sat 11:05:34 PM 52.1189 0.5711 86° East 452 520 34,500 -2,571 Descending FlightAware UK
Sat 11:05:52 PM 52.1194 0.6416 89° East 452 520 34,500 4,286 Level FlightAware UK
Sat 11:05:55 PM 52.1365 0.6545 89° East 529 609 36,000  Climbing FlightAware ADS-B
Sat 11:06:10 PM 52.1197 0.7130 89° East 452 520 34,500 -2,727 Descending FlightAware UK
Sat 11:06:28 PM 52.1200 0.7858 90° East 452 520 34,500 3,913 Level FlightAware UK
Sat 11:06:33 PM 52.1363 0.8067 90° East 528 608 36,000  Climbing FlightAware ADS-B
Sat 11:06:52 PM 52.1203 0.8806 90° East 452 520 34,500  Descending FlightAware UK
Sat 11:07:04 PM 52.1361 0.9270 90° East 528 608 36,000  Climbing FlightAware ADS-B
Sat 11:07:22 PM 52.1207 0.9991 90° East 450 518 34,500  Descending FlightAware UK
Sat 11:07:34 PM 52.1356 1.0480 90° East 526 605 36,000  Climbing FlightAware ADS-B
Sat 11:07:52 PM 52.1209 1.1183 90° East 450 518 34,500 -2,500 Descending FlightAware UK
Sat 11:08:10 PM 52.1209 1.1876 90° East 450 518 34,500 4,737 Level FlightAware UK
Sat 11:08:11 PM 52.1351 1.1915 90° East 525 604 36,000  Climbing FlightAware ADS-B
Sat 11:08:28 PM 52.1209 1.2592 90° East 450 518 34,500 -2,571 Descending FlightAware UK
Sat 11:08:46 PM 52.1208 1.3307 90° East 452 520 34,500 3,750 Level FlightAware UK
Sat 11:08:52 PM 52.1341 1.3552 90° East 525 604 36,000  Climbing FlightAware ADS-B
Sat 11:09:10 PM 52.1207 1.4251 90° East 456 525 34,500 -2,500 Descending FlightAware UK
Sat 11:09:28 PM 52.1206 1.4958 90° East 452 520 34,500  Level FlightAware UK
Sat 11:09:46 PM 52.1205 1.5648 90° East 452 520 34,500  Level FlightAware UK
Sat 11:10:04 PM 52.1204 1.6354 90° East 452 520 34,500  Level FlightAware UK
Sat 11:10:22 PM 52.1201 1.7067 90° East 452 520 34,500 2,571 Level FlightAware UK
Sat 11:10:36 PM 52.1308 1.7623 90° East 36,000 5,294 Climbing FlightAware ADS-B
Sat 11:10:39 PM 52.1306 1.7741 92° East 522 601 36,000 -4,091 Level FlightAware ADS-B
Sat 11:10:58 PM 52.1193 1.8476 92° East 452 520 34,500  Descending FlightAware UK
Sat 11:11:14 PM 52.1291 1.9118 92° East 521 600 36,000 2,813 Climbing FlightAware ADS-B
Sat 11:11:30 PM 52.1284 1.9726 91° East 520 598 36,000 -2,813 Level FlightAware ADS-B
Sat 11:11:46 PM 52.1137 2.0343 91° East 450 518 34,500  Descending FlightAware UK
Sat 11:11:48 PM 52.1228 2.0412 91° East 518 596 36,000  Climbing FlightAware ADS-B
Sat 11:12:04 PM 52.1045 2.1040 91° East 452 520 34,500 -2,647 Descending FlightAware UK
Sat 11:12:22 PM 52.0953 2.1711 103° East 452 520 34,500  Level FlightAware UK
Sat 11:12:40 PM 52.0857 2.2389 103° East 452 520 34,500 3,600 Level FlightAware UK
Sat 11:12:47 PM 52.0930 2.2510 103° East 516 594 36,000 3,750 Climbing FlightAware ADS-B
Sat 11:13:04 PM 52.0822 2.3281 103° East 516 594 36,000 -2,500 Level FlightAware ADS-B
Sat 11:13:23 PM 52.0647 2.3997 103° East 452 520 34,500  Descending FlightAware UK
Sat 11:13:35 PM 52.0666 2.4486 103° East 518 596 36,000  Climbing FlightAware ADS-B
Sat 11:13:53 PM 52.0513 2.5139 103° East 450 518 34,500  Descending FlightAware UK
Sat 11:13:53 PM 52.0578 2.5160 103° East 516 594 36,000  Climbing FlightAware ADS-B
Sat 11:14:11 PM 52.0424 2.5819 103° East 450 518 34,500  Descending FlightAware UK
Sat 11:14:23 PM 52.0407 2.6292 103° East 514 592 36,000  Climbing FlightAware ADS-B
Sat 11:14:41 PM 52.0244 2.6937 103° East 446 513 34,500  Descending FlightAware UK
Sat 11:14:54 PM 52.0227 2.7425 103° East 515 593 36,000  Climbing FlightAware ADS-B
Sat 11:15:11 PM 52.0074 2.8060 103° East 448 516 34,500 -2,571 Descending FlightAware UK
Sat 11:15:29 PM 51.9971 2.8735 104° East 450 518 34,500 5,000 Level FlightAware UK
Sat 11:15:29 PM 52.0021 2.8750 104° East 517 595 36,000  Climbing FlightAware ADS-B
Sat 11:15:47 PM 51.9871 2.9412 104° East 450 518 34,500 -2,500 Descending FlightAware UK
Sat 11:16:05 PM 51.9772 3.0090 103° East 450 518 34,500 3,000 Level FlightAware UK
Sat 11:16:17 PM 51.9750 3.0470 103° East 516 594 36,000  Climbing FlightAware ADS-B
Sat 11:16:35 PM 51.9603 3.1218 103° East 450 518 34,500 -2,500 Descending FlightAware UK
Sat 11:16:53 PM 51.9500 3.1895 104° East 450 518 34,500 3,333 Level FlightAware UK
Sat 11:17:02 PM 51.9490 3.2170 104° East 516 594 36,000  Climbing FlightAware ADS-B
Sat 11:17:17 PM 51.9363 3.2797 104° East 450 518 34,500 -2,727 Descending FlightAware UK
Sat 11:17:35 PM 51.9259 3.3481 104° East 450 518 34,500 3,600 Level FlightAware UK
Sat 11:17:42 PM 51.9250 3.3660 104° East 517 595 36,000  Climbing FlightAware ADS-B
Sat 11:17:59 PM 51.9120 3.4382 104° East 452 520 34,500 -2,571 Descending FlightAware UK
Sat 11:18:17 PM 51.9018 3.5058 104° East 452 520 34,500 3,214 Level FlightAware UK
Sat 11:18:27 PM 51.8990 3.5310 104° East 515 593 36,000  Climbing FlightAware ADS-B
Sat 11:18:47 PM 51.8843 3.6181 104° East 452 520 34,500 -2,368 Descending FlightAware UK
Sat 11:19:05 PM 51.8737 3.6853 104° East 454 522 34,500 4,500 Level FlightAware UK
Sat 11:19:07 PM 51.8750 3.6810 104° East 515 593 36,000  Climbing FlightAware ADS-B
Sat 11:19:23 PM 51.8630 3.7526 104° East 454 522 34,500 -2,647 Descending FlightAware UK
Sat 11:19:41 PM 51.8522 3.8198 105° East 454 522 34,500 3,750 Level FlightAware UK
Sat 11:19:47 PM 51.8500 3.8290 105° East 516 594 36,000  Climbing FlightAware ADS-B
Sat 11:20:05 PM 51.8380 3.9095 105° East 454 522 34,500 -2,500 Descending FlightAware UK
Sat 11:20:23 PM 51.8271 3.9767 105° East 454 522 34,500 3,333 Level FlightAware UK
Sat 11:20:32 PM 51.8220 4.0010 105° East 516 594 36,000  Climbing FlightAware ADS-B
Sat 11:20:47 PM 51.8129 4.0664 105° East 454 522 34,500 -2,727 Descending FlightAware UK
Sat 11:21:05 PM 51.8019 4.1336 105° East 452 520 34,500 3,600 Level FlightAware UK
Sat 11:21:12 PM 51.7980 4.1470 105° East 515 593 36,000  Climbing FlightAware ADS-B
Sat 11:21:29 PM 51.7873 4.2231 105° East 452 520 34,500 -2,571 Descending FlightAware UK
Sat 11:21:47 PM 51.7765 4.2894 105° East 452 520 34,500 3,913 Level FlightAware UK
Sat 11:21:52 PM 51.7730 4.2980 105° East 515 593 36,000  Climbing FlightAware ADS-B
Sat 11:22:11 PM 51.7616 4.3794 105° East 450 518 34,500 -2,432 Descending FlightAware UK
Sat 11:22:29 PM 51.7505 4.4463 105° East 452 520 34,500 3,462 Level FlightAware UK
Sat 11:22:37 PM 51.7460 4.4540 105° East 515 593 36,000  Climbing FlightAware ADS-B
Sat 11:22:53 PM 51.7358 4.5363 105° East 452 520 34,500 -2,647 Descending FlightAware UK
Sat 11:23:11 PM 51.7250 4.6032 105° East 452 520 34,500 3,750 Level FlightAware UK
Sat 11:23:17 PM 51.7200 4.6080 105° East 515 593 36,000  Climbing FlightAware ADS-B
Sat 11:23:35 PM 51.7101 4.6925 105° East 452 520 34,500 -2,500 Descending FlightAware UK
Sat 11:23:53 PM 51.6988 4.7593 105° East 452 520 34,500 3,333 Level FlightAware UK
Sat 11:24:02 PM 51.6920 4.7760 105° East 514 592 36,000  Climbing FlightAware ADS-B
Sat 11:24:17 PM 51.6835 4.8481 105° East 450 518 34,500 -2,727 Descending FlightAware UK
Sat 11:24:35 PM 51.6722 4.9150 105° East 450 518 34,500 3,600 Level FlightAware UK
Sat 11:24:42 PM 51.6660 4.9240 105° East 515 593 36,000  Climbing FlightAware ADS-B
Sat 11:24:59 PM 51.6567 5.0038 105° East 450 518 34,500 -2,571 Descending FlightAware UK
Sat 11:25:17 PM 51.6451 5.0704 106° East 450 518 34,500 3,913 Level FlightAware UK
Sat 11:25:22 PM 51.6400 5.0710 106° East 516 594 36,000  Climbing FlightAware ADS-B
Sat 11:25:41 PM 51.6298 5.1595 106° East 450 518 34,500 -2,432 Descending FlightAware UK
Sat 11:25:59 PM 51.6186 5.2264 105° East 450 518 34,500 3,462 Level FlightAware UK
Sat 11:26:07 PM 51.6110 5.2420 105° East 516 594 36,000  Climbing FlightAware ADS-B
Sat 11:26:23 PM 51.6030 5.3153 105° East 450 518 34,500 -2,647 Descending FlightAware UK
Sat 11:26:41 PM 51.5914 5.3822 106° East 450 518 34,500 3,750 Level FlightAware UK
Sat 11:26:47 PM 51.5840 5.3810 106° East 517 595 36,000  Climbing FlightAware ADS-B
Sat 11:27:05 PM 51.5732 5.4700 106° East 450 518 34,500  Descending FlightAware UK
Sat 11:27:32 PM 51.5430 5.5450 106° East 518 596 36,000 1,343 Climbing FlightAware ADS-B
Sat 11:28:12 PM 51.5070 5.6860 112° Southeast 518 596 36,000  Level FlightAware ADS-B
Sat 11:28:52 PM 51.4710 5.8300 112° Southeast 519 597 36,000  Level FlightAware ADS-B
Sat 11:29:37 PM 51.4330 5.9870 111° Southeast 519 597 36,000  Level FlightAware ADS-B
Sat 11:30:17 PM 51.3980 6.1310 111° Southeast 519 597 36,000  Level FlightAware ADS-B
Sat 11:31:02 PM 51.3570 6.2950 112° Southeast 519 597 36,000 -212 Level FlightAware ADS-B
Sat 11:31:42 PM 51.3230 6.4360 111° Southeast 519 597 35,700 -1,350 Descending FlightAware ADS-B
Sat 11:32:22 PM 51.2880 6.5730 112° Southeast 519 597 34,200 -2,329 Descending FlightAware ADS-B
Sat 11:33:07 PM 51.2490 6.7290 112° Southeast 519 597 32,400 -2,682 Descending FlightAware ADS-B
Sat 11:33:47 PM 51.2110 6.8780 112° Southeast 519 597 30,400 -2,824 Descending FlightAware ADS-B
Sat 11:34:32 PM 51.1720 7.0310 112° Southeast 514 592 28,400 -2,471 Descending FlightAware ADS-B
Sat 11:35:12 PM 51.1320 7.1710 114° Southeast 513 590 26,900 -2,100 Descending FlightAware ADS-B
Sat 11:35:52 PM 51.0820 7.2910 124° Southeast 507 583 25,600 -1,976 Descending FlightAware ADS-B
Sat 11:36:37 PM 51.0210 7.4220 126° Southeast 494 568 24,100 -1,835 Descending FlightAware ADS-B
Sat 11:37:17 PM 50.9630 7.5310 130° Southeast 487 560 23,000 -1,275 Descending FlightAware ADS-B
Sat 11:37:57 PM 50.9060 7.6350 131° Southeast 475 547 22,400 -847 Descending FlightAware ADS-B
Sat 11:38:42 PM 50.8410 7.7580 130° Southeast 462 532 21,800 -847 Descending FlightAware ADS-B
Sat 11:39:22 PM 50.7880 7.8630 129° Southeast 449 517 21,200 -1,200 Descending FlightAware ADS-B
Sat 11:40:07 PM 50.7290 7.9760 129° Southeast 442 509 20,100 -1,906 Descending FlightAware ADS-B
Sat 11:40:47 PM 50.6780 8.0770 129° Southeast 440 506 18,500 -2,700 Descending FlightAware ADS-B
Sat 11:41:27 PM 50.6250 8.1770 130° Southeast 435 501 16,500 -2,400 Descending FlightAware ADS-B
Sat 11:42:12 PM 50.5680 8.2860 129° Southeast 432 497 15,100 -1,200 Descending FlightAware ADS-B
Sat 11:42:42 PM 50.5290 8.3600 130° Southeast 408 470 15,000 -943 Descending FlightAware ADS-B
Sat 11:43:22 PM 50.4830 8.4480 129° Southeast 401 461 14,000 -1,350 Descending FlightAware ADS-B
Sat 11:44:02 PM 50.4390 8.5390 127° Southeast 381 438 13,200 -1,694 Descending FlightAware ADS-B
Sat 11:44:47 PM 50.3990 8.6470 120° Southeast 370 426 11,600 -1,765 Descending FlightAware ADS-B
Sat 11:45:27 PM 50.3670 8.7340 120° Southeast 331 381 10,700 -1,271 Descending FlightAware ADS-B
Sat 11:46:12 PM 50.3360 8.8250 118° Southeast 307 353 9,800 -1,543 Descending FlightAware ADS-B
Sat 11:46:37 PM 50.3190 8.8730 119° Southeast 299 344 8,900 -2,073 Descending FlightAware ADS-B
Sat 11:47:07 PM 50.2970 8.9280 122° Southeast 286 329 7,900 -1,964 Descending FlightAware ADS-B
Sat 11:47:32 PM 50.2680 8.9530 151° Southeast 272 313 7,100 -1,950 Descending FlightAware ADS-B
Sat 11:47:47 PM 50.2510 8.9660 154° Southeast 268 308 6,600 -2,200 Descending FlightAware ADS-B
Sat 11:48:02 PM 50.2330 8.9730 166° South 257 296 6,000 -1,950 Descending FlightAware ADS-B
Sat 11:48:27 PM 50.2040 8.9640 191° South 253 291 5,300 -1,527 Descending FlightAware ADS-B
Sat 11:48:57 PM 50.1740 8.9350 212° Southwest 230 265 4,600 -1,300 Descending FlightAware ADS-B
Sat 11:49:27 PM 50.1550 8.8990 231° Southwest 209 241 4,000 -982 Descending FlightAware ADS-B
Sat 11:49:52 PM 50.1470 8.8660 249° West 192 221 3,700 -327 Descending FlightAware ADS-B
Sat 11:50:22 PM 50.1390 8.8270 252° West 187 215 3,700  Level FlightAware ADS-B
Sat 11:50:52 PM 50.1300 8.7880 250° West 185 213 3,700 -109 Level FlightAware ADS-B
Sat 11:51:17 PM 50.1230 8.7580 250° West 169 194 3,600 -655 Descending FlightAware ADS-B
Sat 11:51:47 PM 50.1160 8.7240 252° West 166 191 3,100 -982 Descending FlightAware ADS-B
Sat 11:52:12 PM 50.1100 8.6960 252° West 170 196 2,700 -982 Descending FlightAware ADS-B
Sat 11:52:42 PM 50.1020 8.6620 250° West 168 193 2,200 -840 Descending FlightAware ADS-B
Sat 11:53:02 PM 50.0970 8.6410 250° West 159 183 2,000 -840 Descending FlightAware ADS-B
Sat 11:53:32 PM 50.0900 8.6090 251° West 146 168 1,500 -462 Descending FlightAware ADS-B
Sat 11:54:07 PM 50.0850 8.5830 253° West 140 161 1,500 -700 Level FlightAware ADS-B
Sat 11:54:32 PM 50.0790 8.5580 250° West 122 140 800 -1,200 Descending FlightAware ADS-B
Sat 11:54:52 PM 50.0760 8.5440 252° West 126 145 600 -600 Descending FlightAware ADS-B

Login

Don't have an account? Register now (free) for customized features, flight alerts, and more!